createdAt,value
2022-08-03T00:02:17.733Z,69.72
2022-08-03T00:04:45.152Z,69.83
2022-08-03T00:07:11.943Z,69.86
2022-08-03T00:09:38.683Z,69.89
2022-08-03T00:12:08.785Z,70.20
2022-08-03T00:14:35.934Z,70.18
2022-08-03T00:17:03.476Z,70.26
2022-08-03T00:19:30.407Z,70.33
2022-08-03T00:21:57.162Z,70.38
2022-08-03T00:24:23.982Z,70.48
2022-08-03T00:26:50.909Z,69.79
2022-08-03T00:29:17.831Z,69.98
2022-08-03T00:31:52.393Z,69.91
2022-08-03T00:34:36.627Z,69.92
2022-08-03T00:37:07.437Z,70.01
2022-08-03T00:39:34.497Z,70.06
2022-08-03T00:42:06.268Z,70.24
2022-08-03T00:44:41.189Z,69.85
2022-08-03T00:47:10.448Z,69.90
2022-08-03T00:49:41.103Z,69.74
2022-08-03T00:52:11.201Z,69.66
2022-08-03T00:54:39.097Z,69.83
2022-08-03T00:57:07.254Z,70.49
2022-08-03T00:59:34.647Z,70.49
2022-08-03T01:02:01.582Z,70.22
2022-08-03T01:04:28.465Z,70.28
2022-08-03T01:07:11.391Z,70.71
2022-08-03T01:10:03.334Z,70.82
2022-08-03T01:12:58.047Z,70.85
2022-08-03T01:15:33.656Z,70.83
2022-08-03T01:18:25.501Z,70.61
2022-08-03T01:20:58.811Z,70.60
2022-08-03T01:24:06.128Z,70.63
2022-08-03T01:26:45.398Z,70.44
2022-08-03T01:29:49.820Z,70.61
2022-08-03T01:33:00.980Z,70.83
2022-08-03T01:35:38.637Z,70.21
2022-08-03T01:38:42.098Z,70.69
2022-08-03T01:41:20.538Z,70.93
2022-08-03T01:43:59.068Z,71.12
2022-08-03T01:46:40.564Z,70.95
2022-08-03T01:49:18.296Z,70.75
2022-08-03T01:52:03.332Z,70.91
2022-08-03T01:54:40.872Z,70.90
2022-08-03T01:57:09.701Z,70.54
2022-08-03T01:59:40.550Z,70.26
2022-08-03T02:02:29.116Z,70.71
2022-08-03T02:05:01.571Z,70.07
2022-08-03T02:07:32.081Z,70.31
2022-08-03T02:10:03.030Z,69.95
2022-08-03T02:12:33.083Z,70.32
2022-08-03T02:15:02.292Z,69.89
2022-08-03T02:17:39.362Z,70.55
2022-08-03T02:20:12.202Z,70.24
2022-08-03T02:22:44.931Z,69.92
2022-08-03T02:25:14.468Z,70.09
2022-08-03T02:28:01.941Z,70.51
2022-08-03T02:30:41.110Z,70.76
2022-08-03T02:33:24.817Z,70.85
2022-08-03T02:35:54.286Z,70.61
2022-08-03T02:38:29.024Z,71.05
2022-08-03T02:40:58.656Z,70.90
2022-08-03T02:43:28.737Z,70.83
2022-08-03T02:46:13.716Z,71.81
2022-08-03T02:48:43.172Z,71.20
2022-08-03T02:51:10.792Z,71.05
2022-08-03T02:53:40.463Z,70.79
2022-08-03T02:56:09.925Z,71.13
2022-08-03T02:58:40.288Z,71.19
2022-08-03T03:01:07.806Z,70.94
2022-08-03T03:03:39.957Z,70.99
2022-08-03T03:06:13.629Z,70.79
2022-08-03T03:08:42.698Z,70.22
2022-08-03T03:11:11.358Z,69.58
2022-08-03T03:13:41.679Z,69.74
2022-08-03T03:16:10.122Z,69.70
2022-08-03T03:18:38.561Z,69.66
2022-08-03T03:21:09.980Z,69.83
2022-08-03T03:23:40.013Z,70.14
2022-08-03T03:26:08.246Z,69.94
2022-08-03T03:28:39.696Z,69.90
2022-08-03T03:31:08.491Z,70.04
2022-08-03T03:33:37.308Z,70.40
2022-08-03T03:36:07.294Z,70.43
2022-08-03T03:38:34.330Z,70.82
2022-08-03T03:41:02.383Z,70.58
2022-08-03T03:43:29.630Z,70.96
2022-08-03T03:45:58.662Z,71.15
2022-08-03T03:48:26.428Z,71.01
2022-08-03T03:50:53.653Z,71.38
2022-08-03T03:53:20.536Z,71.67
2022-08-03T03:55:57.918Z,71.53
2022-08-03T03:58:32.403Z,71.52
2022-08-03T04:01:00.436Z,71.76
2022-08-03T04:03:27.674Z,72.19
2022-08-03T04:06:13.049Z,72.08
2022-08-03T04:08:59.460Z,72.47
2022-08-03T04:11:49.008Z,72.18
2022-08-03T04:14:32.538Z,72.16
2022-08-03T04:17:04.945Z,72.08
2022-08-03T04:19:37.789Z,71.96
2022-08-03T04:22:11.333Z,72.13
2022-08-03T04:24:53.701Z,72.36
2022-08-03T04:27:29.161Z,71.81
2022-08-03T04:29:59.384Z,72.03
2022-08-03T04:32:28.746Z,72.02
2022-08-03T04:34:56.265Z,72.14
2022-08-03T04:37:39.588Z,72.15
2022-08-03T04:40:13.349Z,72.03
2022-08-03T04:42:42.029Z,71.71
2022-08-03T04:45:14.902Z,71.75
2022-08-03T04:47:42.738Z,72.09
2022-08-03T04:50:13.516Z,73.48
2022-08-03T04:52:42.160Z,73.39
2022-08-03T04:55:09.744Z,73.87
2022-08-03T04:57:36.667Z,73.66
2022-08-03T05:00:06.565Z,73.29
2022-08-03T05:02:33.650Z,73.41
2022-08-03T05:05:00.745Z,73.05
2022-08-03T05:07:34.071Z,72.90
2022-08-03T05:10:16.109Z,72.99
2022-08-03T05:12:45.871Z,72.44
2022-08-03T05:15:13.178Z,72.20
2022-08-03T05:17:40.316Z,71.64
2022-08-03T05:20:08.124Z,71.31
2022-08-03T05:22:34.876Z,71.43
2022-08-03T05:25:02.456Z,70.69
2022-08-03T05:27:29.628Z,71.03
2022-08-03T05:29:56.637Z,70.76
2022-08-03T05:32:43.409Z,68.98
2022-08-03T05:36:00.477Z,68.70
2022-08-03T05:37:57.071Z,67.81
2022-08-03T05:40:24.854Z,65.34
2022-08-03T05:42:54.067Z,64.88
2022-08-03T05:45:23.278Z,61.79
2022-08-03T05:47:53.662Z,60.57
2022-08-03T05:50:21.066Z,60.12
2022-08-03T05:52:47.858Z,59.32
2022-08-03T05:55:16.024Z,59.86
2022-08-03T05:57:43.731Z,57.79
2022-08-03T06:00:12.817Z,57.15
2022-08-03T06:02:43.507Z,55.68
2022-08-03T06:05:10.952Z,54.85
2022-08-03T06:07:37.982Z,52.26
2022-08-03T06:10:35.712Z,53.10
2022-08-03T06:12:52.776Z,49.75
2022-08-03T06:15:20.891Z,50.67
2022-08-03T06:17:52.335Z,50.00
2022-08-03T06:20:21.480Z,49.79
2022-08-03T06:23:00.189Z,49.96
2022-08-03T06:25:28.951Z,48.42
2022-08-03T06:27:55.852Z,50.37
2022-08-03T06:30:22.640Z,49.08
2022-08-03T06:32:52.078Z,48.38
2022-08-03T06:35:20.014Z,49.39
2022-08-03T06:37:52.041Z,46.92
2022-08-03T06:40:32.134Z,48.40
2022-08-03T06:43:01.754Z,47.55
2022-08-03T06:45:31.758Z,47.17
2022-08-03T06:48:06.119Z,46.24
2022-08-03T06:50:35.485Z,45.68
2022-08-03T06:53:04.377Z,45.65
2022-08-03T06:55:32.473Z,47.22
2022-08-03T06:58:00.012Z,46.25
2022-08-03T07:00:31.278Z,45.54
2022-08-03T07:02:58.569Z,43.25
2022-08-03T07:05:25.863Z,43.32
2022-08-03T07:07:57.646Z,41.57
2022-08-03T07:10:25.094Z,42.23
2022-08-03T07:12:55.660Z,43.51
2022-08-03T07:15:54.631Z,42.11
2022-08-03T07:18:10.588Z,40.58
2022-08-03T07:20:37.381Z,41.40
2022-08-03T07:23:04.167Z,41.36
2022-08-03T07:25:30.905Z,39.55
2022-08-03T07:27:57.713Z,39.57
2022-08-03T07:30:25.240Z,39.76
2022-08-03T07:32:51.938Z,40.50
2022-08-03T07:35:25.117Z,40.15
2022-08-03T07:37:54.903Z,39.10
2022-08-03T07:40:22.975Z,38.14
2022-08-03T07:42:53.365Z,38.37
2022-08-03T07:45:23.493Z,37.72
2022-08-03T07:47:53.190Z,38.25
2022-08-03T07:50:22.543Z,38.05
2022-08-03T07:52:52.165Z,37.99
2022-08-03T07:55:22.046Z,38.31
2022-08-03T07:58:16.536Z,38.22
2022-08-03T08:00:46.213Z,37.70
2022-08-03T08:03:13.476Z,35.62
2022-08-03T08:05:40.266Z,37.52
2022-08-03T08:08:07.511Z,36.21
2022-08-03T08:10:35.247Z,36.54
2022-08-03T08:13:03.483Z,35.81
2022-08-03T08:15:31.650Z,36.39
2022-08-03T08:18:01.488Z,36.45
2022-08-03T08:20:37.970Z,37.80
2022-08-03T08:23:28.377Z,37.02
2022-08-03T08:25:56.229Z,35.59
2022-08-03T08:28:30.205Z,36.53
2022-08-03T08:31:00.042Z,35.42
2022-08-03T08:33:37.331Z,36.26
2022-08-03T08:36:14.736Z,36.05
2022-08-03T08:38:42.732Z,36.20
2022-08-03T08:41:12.081Z,34.64
2022-08-03T08:43:39.220Z,35.06
2022-08-03T08:46:10.227Z,35.98
2022-08-03T08:48:44.192Z,34.90
2022-08-03T08:51:13.727Z,34.48
2022-08-03T08:53:47.819Z,33.39
2022-08-03T08:56:16.975Z,33.15
2022-08-03T08:58:54.302Z,31.47
2022-08-03T09:01:22.022Z,32.01
2022-08-03T09:03:50.139Z,32.34
2022-08-03T09:06:17.439Z,33.13
2022-08-03T09:08:44.190Z,32.80
2022-08-03T09:11:12.013Z,31.27
2022-08-03T09:13:40.218Z,32.63
2022-08-03T09:16:22.123Z,29.54
2022-08-03T09:18:54.237Z,30.79
2022-08-03T09:21:32.924Z,29.96
2022-08-03T09:24:05.321Z,30.39
2022-08-03T09:26:37.968Z,30.90
2022-08-03T09:29:14.047Z,29.60
2022-08-03T09:31:46.974Z,31.01
2022-08-03T09:34:17.147Z,30.71
2022-08-03T09:36:47.783Z,30.82
2022-08-03T09:39:40.811Z,30.51
2022-08-03T09:42:19.324Z,32.51
2022-08-03T09:44:53.055Z,31.06
2022-08-03T09:47:44.920Z,29.35
2022-08-03T09:50:13.032Z,29.61
2022-08-03T09:52:52.047Z,29.95
2022-08-03T09:56:34.644Z,29.25
2022-08-03T09:58:10.585Z,29.55
2022-08-03T10:01:06.253Z,29.79
2022-08-03T10:04:02.695Z,30.56
2022-08-03T10:06:28.844Z,29.01
2022-08-03T10:09:13.946Z,29.94
2022-08-03T10:11:43.009Z,29.42
2022-08-03T10:14:19.358Z,28.62
2022-08-03T10:16:48.522Z,28.40
2022-08-03T10:19:16.349Z,28.73
2022-08-03T10:21:53.318Z,28.54
2022-08-03T10:24:27.223Z,29.35
2022-08-03T10:27:04.637Z,29.27
2022-08-03T10:29:39.332Z,29.69
2022-08-03T10:32:35.037Z,29.62
2022-08-03T10:35:18.966Z,28.39
2022-08-03T10:38:00.019Z,27.86
2022-08-03T10:40:48.151Z,30.77
2022-08-03T10:43:50.587Z,28.41
2022-08-03T10:46:21.359Z,29.14
2022-08-03T10:48:52.519Z,29.80
2022-08-03T10:51:21.484Z,28.00
2022-08-03T10:53:55.192Z,29.73
2022-08-03T10:56:54.446Z,29.25
2022-08-03T10:59:46.330Z,28.65
2022-08-03T11:02:17.964Z,28.81
2022-08-03T11:04:45.262Z,29.40
2022-08-03T11:07:23.830Z,28.99
2022-08-03T11:09:56.622Z,29.30
2022-08-03T11:12:31.184Z,28.59
2022-08-03T11:15:09.665Z,29.00
2022-08-03T11:17:46.136Z,29.10
2022-08-03T11:20:50.462Z,28.68
2022-08-03T11:24:02.151Z,28.84
2022-08-03T11:26:14.374Z,29.43
2022-08-03T11:28:44.788Z,29.53
2022-08-03T11:31:48.133Z,29.97
2022-08-03T11:34:13.305Z,30.39
2022-08-03T11:37:27.482Z,29.81
2022-08-03T11:39:57.084Z,29.36
2022-08-03T11:42:24.427Z,30.11
2022-08-03T11:44:54.360Z,30.61
2022-08-03T11:47:24.233Z,30.05
2022-08-03T11:49:55.120Z,29.63
2022-08-03T11:52:27.123Z,29.98
2022-08-03T11:54:56.406Z,30.99
2022-08-03T11:59:16.886Z,30.06
2022-08-03T12:00:25.924Z,29.15
2022-08-03T12:03:13.638Z,30.11
2022-08-03T12:05:52.285Z,30.20
2022-08-03T12:08:28.173Z,29.22
2022-08-03T12:10:58.304Z,29.92
2022-08-03T12:14:26.889Z,29.83
2022-08-03T12:16:23.378Z,29.44
2022-08-03T12:19:01.954Z,29.43
2022-08-03T12:21:29.608Z,29.58
2022-08-03T12:24:00.206Z,29.53
2022-08-03T12:26:29.958Z,29.69
2022-08-03T12:28:58.395Z,29.77
2022-08-03T12:31:25.785Z,30.13
2022-08-03T12:34:02.661Z,29.53
2022-08-03T12:36:32.970Z,29.68
2022-08-03T12:39:09.579Z,29.69
2022-08-03T12:41:40.812Z,30.09
2022-08-03T12:44:09.942Z,29.98
2022-08-03T12:46:43.954Z,29.60
2022-08-03T12:49:18.730Z,29.86
2022-08-03T12:51:45.555Z,29.35
2022-08-03T12:54:24.168Z,29.45
2022-08-03T12:57:04.487Z,29.32
2022-08-03T12:59:41.160Z,28.62
2022-08-03T13:02:23.609Z,29.45
2022-08-03T13:04:52.892Z,29.56
2022-08-03T13:07:21.377Z,29.27
2022-08-03T13:09:55.532Z,28.78
2022-08-03T13:12:28.966Z,28.62
2022-08-03T13:14:59.305Z,28.63
2022-08-03T13:17:27.964Z,29.01
2022-08-03T13:19:54.871Z,29.47
2022-08-03T13:22:30.980Z,29.18
2022-08-03T13:24:58.263Z,29.10
2022-08-03T13:28:04.291Z,29.51
2022-08-03T13:30:17.860Z,28.72
2022-08-03T13:32:58.646Z,29.69
2022-08-03T13:35:26.091Z,29.08
2022-08-03T13:37:53.527Z,28.88
2022-08-03T13:40:23.801Z,28.71
2022-08-03T13:42:57.262Z,28.63
2022-08-03T13:45:24.835Z,28.26
2022-08-03T13:47:51.543Z,27.82
2022-08-03T13:50:18.485Z,28.82
2022-08-03T13:52:46.811Z,29.37
2022-08-03T13:55:13.551Z,28.63
2022-08-03T13:58:02.920Z,29.22
2022-08-03T14:00:29.325Z,28.49
2022-08-03T14:03:12.611Z,29.21
2022-08-03T14:05:40.970Z,28.07
2022-08-03T14:08:08.128Z,28.77
2022-08-03T14:10:39.224Z,28.42
2022-08-03T14:13:07.065Z,29.22
2022-08-03T14:15:37.542Z,29.43
2022-08-03T14:18:12.618Z,28.26
2022-08-03T14:20:48.805Z,28.63
2022-08-03T14:23:19.240Z,28.37
2022-08-03T14:25:52.068Z,28.07
2022-08-03T14:28:24.561Z,28.43
2022-08-03T14:30:53.762Z,28.11
2022-08-03T14:33:20.743Z,29.05
2022-08-03T14:35:48.208Z,28.63
2022-08-03T14:38:15.935Z,28.60
2022-08-03T14:40:44.735Z,28.20
2022-08-03T14:43:11.527Z,29.02
2022-08-03T14:45:40.470Z,28.90
2022-08-03T14:50:31.971Z,28.14
2022-08-03T14:50:55.394Z,29.59
2022-08-03T14:53:23.408Z,27.95
2022-08-03T14:55:51.858Z,27.47
2022-08-03T14:58:25.205Z,27.80
2022-08-03T15:00:54.817Z,28.37
2022-08-03T15:03:25.004Z,28.99
2022-08-03T15:05:56.850Z,29.07
2022-08-03T15:08:26.229Z,28.22
2022-08-03T15:10:54.791Z,27.78
2022-08-03T15:13:22.971Z,27.71
2022-08-03T15:15:50.128Z,28.09
2022-08-03T15:18:16.999Z,28.11
2022-08-03T15:20:45.976Z,28.46
2022-08-03T15:23:15.844Z,27.42
2022-08-03T15:26:28.962Z,28.22
2022-08-03T15:28:34.892Z,28.01
2022-08-03T15:31:05.843Z,28.13
2022-08-03T15:33:32.722Z,27.88
2022-08-03T15:36:02.280Z,27.68
2022-08-03T15:38:29.053Z,28.00
2022-08-03T15:40:56.086Z,27.62
2022-08-03T15:43:24.756Z,27.47
2022-08-03T15:46:12.780Z,27.01
2022-08-03T15:48:40.558Z,28.81
2022-08-03T15:51:08.524Z,28.67
2022-08-03T15:53:36.085Z,28.29
2022-08-03T15:56:08.017Z,27.81
2022-08-03T15:59:09.775Z,28.98
2022-08-03T16:01:26.989Z,28.57
2022-08-03T16:03:54.327Z,29.67
2022-08-03T16:06:35.404Z,28.86
2022-08-03T16:09:22.983Z,28.44
2022-08-03T16:11:55.828Z,28.53
2022-08-03T16:14:34.854Z,28.65
2022-08-03T16:17:07.318Z,29.85
2022-08-03T16:19:34.172Z,29.58
2022-08-03T16:22:03.154Z,29.92
2022-08-03T16:24:30.492Z,30.22
2022-08-03T16:26:57.256Z,29.34
2022-08-03T16:29:24.354Z,29.13
2022-08-03T16:31:52.980Z,29.04
2022-08-03T16:34:21.291Z,29.46
2022-08-03T16:36:48.086Z,30.37
2022-08-03T16:39:15.009Z,29.58
2022-08-03T16:41:53.976Z,30.22
2022-08-03T16:44:30.604Z,29.26
2022-08-03T16:46:58.906Z,30.24
2022-08-03T16:49:55.468Z,30.44
2022-08-03T16:52:13.244Z,29.97
2022-08-03T16:54:40.739Z,29.65
2022-08-03T16:57:08.622Z,29.50
2022-08-03T16:59:36.946Z,29.91
2022-08-03T17:02:10.193Z,29.87
2022-08-03T17:04:40.178Z,30.52
2022-08-03T17:07:08.838Z,30.71
2022-08-03T17:09:38.162Z,30.89
2022-08-03T17:12:10.901Z,31.48
2022-08-03T17:14:39.370Z,32.11
2022-08-03T17:17:26.466Z,33.42
2022-08-03T17:19:55.377Z,32.39
2022-08-03T17:22:31.551Z,32.22
2022-08-03T17:25:07.666Z,33.03
2022-08-03T17:28:51.021Z,33.15
2022-08-03T17:30:43.461Z,34.23
2022-08-03T17:33:20.489Z,33.35
2022-08-03T17:35:47.851Z,33.97
2022-08-03T17:38:22.427Z,35.21
2022-08-03T17:40:52.012Z,35.22
2022-08-03T17:44:13.195Z,35.46
2022-08-03T17:46:07.352Z,37.31
2022-08-03T17:48:41.476Z,38.41
2022-08-03T17:51:17.856Z,37.55
2022-08-03T17:54:18.180Z,38.33
2022-08-03T18:00:46.112Z,40.93
2022-08-03T18:06:55.658Z,41.39
2022-08-03T18:10:05.726Z,41.81
2022-08-03T18:12:27.254Z,42.95
2022-08-03T18:15:01.519Z,43.69
2022-08-03T18:17:54.978Z,44.59
2022-08-03T18:20:34.246Z,45.16
2022-08-03T18:23:10.327Z,45.77
2022-08-03T18:25:50.055Z,46.52
2022-08-03T18:28:23.298Z,47.16
2022-08-03T18:30:53.091Z,47.73
2022-08-03T18:34:19.464Z,48.01
2022-08-03T18:36:22.148Z,48.63
2022-08-03T18:39:02.653Z,49.51
2022-08-03T18:41:34.593Z,49.94
2022-08-03T18:44:08.469Z,50.13
2022-08-03T18:47:20.862Z,50.68
2022-08-03T18:50:19.076Z,51.03
2022-08-03T18:52:58.935Z,51.32
2022-08-03T18:55:35.795Z,51.96
2022-08-03T18:58:39.665Z,52.14
2022-08-03T19:02:00.022Z,52.22
2022-08-03T19:04:45.267Z,52.74
2022-08-03T19:07:22.165Z,53.03
2022-08-03T19:09:58.406Z,52.61
2022-08-03T19:12:33.840Z,52.48
2022-08-03T19:15:12.626Z,52.44
2022-08-03T19:17:50.076Z,52.49
2022-08-03T19:20:31.079Z,53.00
2022-08-03T19:22:59.837Z,53.53
2022-08-03T19:25:34.317Z,53.56
2022-08-03T19:28:06.043Z,53.46
2022-08-03T19:30:46.298Z,53.61
2022-08-03T19:33:20.856Z,53.82
2022-08-03T19:35:55.275Z,54.28
2022-08-03T19:38:28.622Z,54.68
2022-08-03T19:41:03.700Z,54.71
2022-08-03T19:43:49.423Z,54.38
2022-08-03T19:46:30.721Z,54.37
2022-08-03T19:49:16.633Z,55.14
2022-08-03T19:52:01.864Z,55.41
2022-08-03T19:55:00.396Z,56.23
2022-08-03T19:57:29.545Z,55.64
2022-08-03T19:59:57.886Z,55.24
2022-08-03T20:02:26.908Z,55.68
2022-08-03T20:04:57.399Z,55.10
2022-08-03T20:07:27.948Z,56.26
2022-08-03T20:09:56.470Z,56.59
2022-08-03T20:12:28.550Z,56.72
2022-08-03T20:14:57.921Z,56.39
2022-08-03T20:17:56.219Z,56.85
2022-08-03T20:20:18.532Z,57.36
2022-08-03T20:22:52.638Z,57.28
2022-08-03T20:25:58.473Z,57.03
2022-08-03T20:28:32.889Z,56.77
2022-08-03T20:31:00.226Z,57.32
2022-08-03T20:33:48.826Z,57.02
2022-08-03T20:36:17.805Z,57.72
2022-08-03T20:38:50.180Z,58.28
2022-08-03T20:41:19.394Z,57.64
2022-08-03T20:46:50.242Z,58.04
2022-08-03T20:49:23.554Z,58.62
2022-08-03T20:51:53.220Z,58.51
2022-08-03T20:54:30.737Z,58.20
2022-08-03T20:57:04.113Z,58.72
2022-08-03T20:59:47.126Z,59.02
2022-08-03T21:05:09.317Z,59.85
2022-08-03T21:08:07.154Z,59.65
2022-08-03T21:10:42.007Z,60.01
2022-08-03T21:12:56.491Z,41.49
2022-08-03T21:13:04.167Z,39.65
2022-08-03T21:13:07.897Z,59.44
2022-08-03T21:13:12.684Z,58.26
2022-08-03T21:13:27.822Z,59.90
2022-08-03T21:16:02.644Z,59.65
2022-08-03T21:18:47.399Z,60.28
2022-08-03T21:21:18.654Z,60.56
2022-08-03T21:23:53.354Z,60.70
2022-08-03T21:26:24.247Z,61.11
2022-08-03T21:28:55.040Z,61.04
2022-08-03T21:31:26.447Z,60.87
2022-08-03T21:34:05.862Z,60.71
2022-08-03T21:36:36.629Z,61.11
2022-08-03T21:39:08.493Z,61.10
2022-08-03T21:41:38.255Z,61.10
2022-08-03T21:44:06.946Z,61.40
2022-08-03T21:46:41.028Z,61.98
2022-08-03T21:50:07.377Z,61.99
2022-08-03T21:52:02.850Z,62.16
2022-08-03T21:54:40.847Z,62.55
2022-08-03T21:57:25.943Z,62.38
2022-08-03T22:00:00.604Z,62.55
2022-08-03T22:02:31.532Z,62.90
2022-08-03T22:04:59.376Z,62.79
2022-08-03T22:07:28.946Z,63.31
2022-08-03T22:09:58.585Z,63.66
2022-08-03T22:12:29.573Z,63.48
2022-08-03T22:15:01.109Z,63.63
2022-08-03T22:17:55.079Z,63.85
2022-08-03T22:20:19.911Z,63.48
2022-08-03T22:22:55.729Z,63.66
2022-08-03T22:25:33.342Z,63.28
2022-08-03T22:28:10.424Z,63.74
2022-08-03T22:30:38.730Z,63.90
2022-08-03T22:33:11.032Z,63.79
2022-08-03T22:35:49.163Z,64.85
2022-08-03T22:38:18.591Z,64.99
2022-08-03T22:40:50.840Z,64.41
2022-08-03T22:43:22.748Z,64.76
2022-08-03T22:46:10.338Z,64.71
2022-08-03T22:48:40.890Z,64.43
2022-08-03T22:51:10.013Z,64.61
2022-08-03T22:53:39.590Z,64.75
2022-08-03T22:56:07.160Z,64.84
2022-08-03T22:58:33.896Z,64.68
2022-08-03T23:01:11.816Z,64.97
2022-08-03T23:04:00.985Z,65.54
2022-08-03T23:06:38.596Z,65.18
2022-08-03T23:09:13.883Z,65.61
2022-08-03T23:11:45.751Z,66.27
2022-08-03T23:14:18.523Z,66.67
2022-08-03T23:16:47.475Z,67.59
2022-08-03T23:19:25.602Z,67.85
2022-08-03T23:22:02.127Z,66.94
2022-08-03T23:24:33.273Z,66.79
2022-08-03T23:27:08.212Z,66.71
2022-08-03T23:29:43.301Z,66.92
2022-08-03T23:32:12.960Z,67.12
2022-08-03T23:34:59.442Z,66.94
2022-08-03T23:37:27.030Z,66.95
2022-08-03T23:39:57.422Z,67.35
2022-08-03T23:42:25.416Z,67.54
2022-08-03T23:45:04.707Z,67.53
2022-08-03T23:47:47.287Z,67.56
2022-08-03T23:50:15.015Z,67.48
2022-08-03T23:53:09.666Z,67.59
2022-08-03T23:56:28.322Z,67.84
2022-08-03T23:59:39.502Z,68.30
